sensor_id;sensor_type;location;lat;lon;timestamp;temperature;humidity
48007;DHT22;33771;48.180;11.400;2022-12-05T00:01:41;1.40;99.90
48007;DHT22;33771;48.180;11.400;2022-12-05T00:04:10;1.40;99.90
48007;DHT22;33771;48.180;11.400;2022-12-05T00:06:36;1.40;99.90
48007;DHT22;33771;48.180;11.400;2022-12-05T00:09:04;1.40;99.90
48007;DHT22;33771;48.180;11.400;2022-12-05T00:11:32;1.40;99.90
48007;DHT22;33771;48.180;11.400;2022-12-05T00:13:59;1.40;99.90
48007;DHT22;33771;48.180;11.400;2022-12-05T00:16:27;1.40;99.90
48007;DHT22;33771;48.180;11.400;2022-12-05T00:18:53;1.40;99.90
48007;DHT22;33771;48.180;11.400;2022-12-05T00:21:22;1.40;99.90
48007;DHT22;33771;48.180;11.400;2022-12-05T00:23:48;1.40;99.90
48007;DHT22;33771;48.180;11.400;2022-12-05T00:26:14;1.40;99.90
48007;DHT22;33771;48.180;11.400;2022-12-05T00:28:40;1.40;99.90
48007;DHT22;33771;48.180;11.400;2022-12-05T00:31:18;1.40;99.90
48007;DHT22;33771;48.180;11.400;2022-12-05T00:33:45;1.40;99.90
48007;DHT22;33771;48.180;11.400;2022-12-05T00:36:13;1.40;99.90
48007;DHT22;33771;48.180;11.400;2022-12-05T00:38:39;1.50;99.90
48007;DHT22;33771;48.180;11.400;2022-12-05T00:41:09;1.50;99.90
48007;DHT22;33771;48.180;11.400;2022-12-05T00:43:34;1.40;99.90
48007;DHT22;33771;48.180;11.400;2022-12-05T00:46:04;1.50;99.90
48007;DHT22;33771;48.180;11.400;2022-12-05T00:48:30;1.50;99.90
48007;DHT22;33771;48.180;11.400;2022-12-05T00:51:17;1.60;99.90
48007;DHT22;33771;48.180;11.400;2022-12-05T00:53:44;1.60;99.90
48007;DHT22;33771;48.180;11.400;2022-12-05T00:56:19;1.60;99.90
48007;DHT22;33771;48.180;11.400;2022-12-05T00:58:45;1.60;99.90
48007;DHT22;33771;48.180;11.400;2022-12-05T01:01:14;1.60;99.90
48007;DHT22;33771;48.180;11.400;2022-12-05T01:03:41;1.50;99.90
48007;DHT22;33771;48.180;11.400;2022-12-05T01:06:08;1.60;99.90
48007;DHT22;33771;48.180;11.400;2022-12-05T01:08:34;1.50;99.90
48007;DHT22;33771;48.180;11.400;2022-12-05T01:11:00;1.50;99.90
48007;DHT22;33771;48.180;11.400;2022-12-05T01:13:27;1.50;99.90
48007;DHT22;33771;48.180;11.400;2022-12-05T01:15:53;1.50;99.90
48007;DHT22;33771;48.180;11.400;2022-12-05T01:18:20;1.50;99.90
48007;DHT22;33771;48.180;11.400;2022-12-05T01:20:46;1.50;99.90
48007;DHT22;33771;48.180;11.400;2022-12-05T01:23:13;1.50;99.90
48007;DHT22;33771;48.180;11.400;2022-12-05T01:25:44;1.50;99.90
48007;DHT22;33771;48.180;11.400;2022-12-05T01:28:11;1.50;99.90
48007;DHT22;33771;48.180;11.400;2022-12-05T01:30:42;1.50;99.90
48007;DHT22;33771;48.180;11.400;2022-12-05T01:33:08;1.50;99.90
48007;DHT22;33771;48.180;11.400;2022-12-05T01:35:36;1.40;99.90
48007;DHT22;33771;48.180;11.400;2022-12-05T01:38:02;1.50;99.90
48007;DHT22;33771;48.180;11.400;2022-12-05T01:40:28;1.40;99.90
48007;DHT22;33771;48.180;11.400;2022-12-05T01:42:54;1.50;99.90
48007;DHT22;33771;48.180;11.400;2022-12-05T01:45:35;1.40;99.90
48007;DHT22;33771;48.180;11.400;2022-12-05T01:48:08;1.40;99.90
48007;DHT22;33771;48.180;11.400;2022-12-05T01:50:36;1.40;99.90
48007;DHT22;33771;48.180;11.400;2022-12-05T01:53:03;1.40;99.90
48007;DHT22;33771;48.180;11.400;2022-12-05T01:55:29;1.40;99.90
48007;DHT22;33771;48.180;11.400;2022-12-05T01:57:56;1.40;99.90
48007;DHT22;33771;48.180;11.400;2022-12-05T02:00:22;1.40;99.90
48007;DHT22;33771;48.180;11.400;2022-12-05T02:02:55;1.50;99.90
48007;DHT22;33771;48.180;11.400;2022-12-05T02:05:28;1.40;99.90
48007;DHT22;33771;48.180;11.400;2022-12-05T02:07:55;1.40;99.90
48007;DHT22;33771;48.180;11.400;2022-12-05T02:10:22;1.40;99.90
48007;DHT22;33771;48.180;11.400;2022-12-05T02:12:48;1.40;99.90
48007;DHT22;33771;48.180;11.400;2022-12-05T02:18:18;1.50;99.90
48007;DHT22;33771;48.180;11.400;2022-12-05T02:23:48;1.50;99.90
48007;DHT22;33771;48.180;11.400;2022-12-05T02:29:14;1.50;99.90
48007;DHT22;33771;48.180;11.400;2022-12-05T02:34:46;1.50;99.90
48007;DHT22;33771;48.180;11.400;2022-12-05T02:37:49;1.40;99.90
48007;DHT22;33771;48.180;11.400;2022-12-05T02:40:42;1.40;99.90
48007;DHT22;33771;48.180;11.400;2022-12-05T02:43:19;1.40;99.90
48007;DHT22;33771;48.180;11.400;2022-12-05T02:45:51;1.40;99.90
48007;DHT22;33771;48.180;11.400;2022-12-05T02:48:19;1.40;99.90
48007;DHT22;33771;48.180;11.400;2022-12-05T02:50:46;1.40;99.90
48007;DHT22;33771;48.180;11.400;2022-12-05T02:53:14;1.40;99.90
48007;DHT22;33771;48.180;11.400;2022-12-05T02:55:41;1.40;99.90
48007;DHT22;33771;48.180;11.400;2022-12-05T02:58:12;1.40;99.90
48007;DHT22;33771;48.180;11.400;2022-12-05T03:00:42;1.40;99.90
48007;DHT22;33771;48.180;11.400;2022-12-05T03:03:15;1.40;99.90
48007;DHT22;33771;48.180;11.400;2022-12-05T03:05:57;1.40;99.90
48007;DHT22;33771;48.180;11.400;2022-12-05T03:08:28;1.40;99.90
48007;DHT22;33771;48.180;11.400;2022-12-05T03:10:54;1.40;99.90
48007;DHT22;33771;48.180;11.400;2022-12-05T03:13:26;1.50;99.90
48007;DHT22;33771;48.180;11.400;2022-12-05T03:15:55;1.50;99.90
48007;DHT22;33771;48.180;11.400;2022-12-05T03:18:31;1.60;99.90
48007;DHT22;33771;48.180;11.400;2022-12-05T03:21:33;1.50;99.90
48007;DHT22;33771;48.180;11.400;2022-12-05T03:24:04;1.60;99.90
48007;DHT22;33771;48.180;11.400;2022-12-05T03:29:25;1.50;99.90
48007;DHT22;33771;48.180;11.400;2022-12-05T03:32:23;1.50;99.90
48007;DHT22;33771;48.180;11.400;2022-12-05T03:37:49;1.50;99.90
48007;DHT22;33771;48.180;11.400;2022-12-05T03:43:22;1.50;99.90
48007;DHT22;33771;48.180;11.400;2022-12-05T03:48:30;1.50;99.90
48007;DHT22;33771;48.180;11.400;2022-12-05T03:50:59;1.50;99.90
48007;DHT22;33771;48.180;11.400;2022-12-05T03:53:28;1.50;99.90
48007;DHT22;33771;48.180;11.400;2022-12-05T03:56:02;1.50;99.90
48007;DHT22;33771;48.180;11.400;2022-12-05T03:58:35;1.50;99.90
48007;DHT22;33771;48.180;11.400;2022-12-05T04:01:03;1.50;99.90
48007;DHT22;33771;48.180;11.400;2022-12-05T04:03:35;1.60;99.90
48007;DHT22;33771;48.180;11.400;2022-12-05T04:06:12;1.60;99.90
48007;DHT22;33771;48.180;11.400;2022-12-05T04:08:43;1.60;99.90
48007;DHT22;33771;48.180;11.400;2022-12-05T04:11:15;1.60;99.90
48007;DHT22;33771;48.180;11.400;2022-12-05T04:14:07;1.60;99.90
48007;DHT22;33771;48.180;11.400;2022-12-05T04:16:41;1.60;99.90
48007;DHT22;33771;48.180;11.400;2022-12-05T04:22:19;1.70;99.90
48007;DHT22;33771;48.180;11.400;2022-12-05T04:24:46;1.70;99.90
48007;DHT22;33771;48.180;11.400;2022-12-05T04:30:21;1.80;99.90
48007;DHT22;33771;48.180;11.400;2022-12-05T04:32:50;1.80;99.90
48007;DHT22;33771;48.180;11.400;2022-12-05T04:35:29;1.70;99.90
48007;DHT22;33771;48.180;11.400;2022-12-05T04:38:14;1.70;99.90
48007;DHT22;33771;48.180;11.400;2022-12-05T04:40:57;1.80;99.90
48007;DHT22;33771;48.180;11.400;2022-12-05T04:43:24;1.80;99.90
48007;DHT22;33771;48.180;11.400;2022-12-05T04:45:51;1.80;99.90
48007;DHT22;33771;48.180;11.400;2022-12-05T04:48:20;1.80;99.90
48007;DHT22;33771;48.180;11.400;2022-12-05T04:50:48;1.80;99.90
48007;DHT22;33771;48.180;11.400;2022-12-05T04:53:15;1.80;99.90
48007;DHT22;33771;48.180;11.400;2022-12-05T04:55:45;1.80;99.90
48007;DHT22;33771;48.180;11.400;2022-12-05T04:58:18;1.80;99.90
48007;DHT22;33771;48.180;11.400;2022-12-05T05:00:55;1.80;99.90
48007;DHT22;33771;48.180;11.400;2022-12-05T05:03:28;1.90;99.90
48007;DHT22;33771;48.180;11.400;2022-12-05T05:05:55;1.90;99.90
48007;DHT22;33771;48.180;11.400;2022-12-05T05:08:24;1.90;99.90
48007;DHT22;33771;48.180;11.400;2022-12-05T05:11:12;1.90;99.90
48007;DHT22;33771;48.180;11.400;2022-12-05T05:13:38;1.90;99.90
48007;DHT22;33771;48.180;11.400;2022-12-05T05:16:05;1.90;99.90
48007;DHT22;33771;48.180;11.400;2022-12-05T05:18:30;1.90;99.90
48007;DHT22;33771;48.180;11.400;2022-12-05T05:20:56;1.90;99.90
48007;DHT22;33771;48.180;11.400;2022-12-05T05:23:22;1.90;99.90
48007;DHT22;33771;48.180;11.400;2022-12-05T05:25:54;1.90;99.90
48007;DHT22;33771;48.180;11.400;2022-12-05T05:28:21;1.90;99.90
48007;DHT22;33771;48.180;11.400;2022-12-05T05:30:47;1.90;99.90
48007;DHT22;33771;48.180;11.400;2022-12-05T05:33:13;1.90;99.90
48007;DHT22;33771;48.180;11.400;2022-12-05T05:35:39;1.90;99.90
48007;DHT22;33771;48.180;11.400;2022-12-05T05:38:04;2.00;99.90
48007;DHT22;33771;48.180;11.400;2022-12-05T05:40:30;2.00;99.90
48007;DHT22;33771;48.180;11.400;2022-12-05T05:42:55;2.00;99.90
48007;DHT22;33771;48.180;11.400;2022-12-05T05:45:21;2.00;99.90
48007;DHT22;33771;48.180;11.400;2022-12-05T05:47:48;2.00;99.90
48007;DHT22;33771;48.180;11.400;2022-12-05T05:50:14;2.00;99.90
48007;DHT22;33771;48.180;11.400;2022-12-05T05:52:40;2.00;99.90
48007;DHT22;33771;48.180;11.400;2022-12-05T05:55:07;2.00;99.90
48007;DHT22;33771;48.180;11.400;2022-12-05T05:57:34;2.10;99.90
48007;DHT22;33771;48.180;11.400;2022-12-05T05:59:59;2.10;99.90
48007;DHT22;33771;48.180;11.400;2022-12-05T06:02:25;2.10;99.90
48007;DHT22;33771;48.180;11.400;2022-12-05T06:04:55;2.10;99.90
48007;DHT22;33771;48.180;11.400;2022-12-05T06:07:20;2.10;99.90
48007;DHT22;33771;48.180;11.400;2022-12-05T06:09:46;2.10;99.90
48007;DHT22;33771;48.180;11.400;2022-12-05T06:12:11;2.10;99.90
48007;DHT22;33771;48.180;11.400;2022-12-05T06:14:37;2.20;99.90
48007;DHT22;33771;48.180;11.400;2022-12-05T06:17:03;2.10;99.90
48007;DHT22;33771;48.180;11.400;2022-12-05T06:19:29;2.20;99.90
48007;DHT22;33771;48.180;11.400;2022-12-05T06:21:55;2.20;99.90
48007;DHT22;33771;48.180;11.400;2022-12-05T06:24:21;2.20;99.90
48007;DHT22;33771;48.180;11.400;2022-12-05T06:26:47;2.20;99.90
48007;DHT22;33771;48.180;11.400;2022-12-05T06:29:12;2.20;99.90
48007;DHT22;33771;48.180;11.400;2022-12-05T06:31:38;2.20;99.90
48007;DHT22;33771;48.180;11.400;2022-12-05T06:34:05;2.20;99.90
48007;DHT22;33771;48.180;11.400;2022-12-05T06:36:31;2.20;99.90
48007;DHT22;33771;48.180;11.400;2022-12-05T06:38:57;2.20;99.90
48007;DHT22;33771;48.180;11.400;2022-12-05T06:41:23;2.20;99.90
48007;DHT22;33771;48.180;11.400;2022-12-05T06:43:52;2.20;99.90
48007;DHT22;33771;48.180;11.400;2022-12-05T06:46:19;2.20;99.90
48007;DHT22;33771;48.180;11.400;2022-12-05T06:48:45;2.20;99.90
48007;DHT22;33771;48.180;11.400;2022-12-05T06:51:14;2.20;99.90
48007;DHT22;33771;48.180;11.400;2022-12-05T06:53:40;2.30;99.90
48007;DHT22;33771;48.180;11.400;2022-12-05T06:56:07;2.30;99.90
48007;DHT22;33771;48.180;11.400;2022-12-05T06:58:36;2.30;99.90
48007;DHT22;33771;48.180;11.400;2022-12-05T07:01:02;2.30;99.90
48007;DHT22;33771;48.180;11.400;2022-12-05T07:03:49;2.30;99.90
48007;DHT22;33771;48.180;11.400;2022-12-05T07:06:15;2.30;99.90
48007;DHT22;33771;48.180;11.400;2022-12-05T07:08:41;2.40;99.90
48007;DHT22;33771;48.180;11.400;2022-12-05T07:11:07;2.30;99.90
48007;DHT22;33771;48.180;11.400;2022-12-05T07:13:32;2.40;99.90
48007;DHT22;33771;48.180;11.400;2022-12-05T07:15:58;2.40;99.90
48007;DHT22;33771;48.180;11.400;2022-12-05T07:18:24;2.40;99.90
48007;DHT22;33771;48.180;11.400;2022-12-05T07:21:02;2.40;99.90
48007;DHT22;33771;48.180;11.400;2022-12-05T07:23:28;2.40;99.90
48007;DHT22;33771;48.180;11.400;2022-12-05T07:25:54;2.40;99.90
48007;DHT22;33771;48.180;11.400;2022-12-05T07:28:20;2.50;99.90
48007;DHT22;33771;48.180;11.400;2022-12-05T07:30:46;2.50;99.90
48007;DHT22;33771;48.180;11.400;2022-12-05T07:33:11;2.50;99.90
48007;DHT22;33771;48.180;11.400;2022-12-05T07:35:37;2.50;99.90
48007;DHT22;33771;48.180;11.400;2022-12-05T07:38:02;2.50;99.90
48007;DHT22;33771;48.180;11.400;2022-12-05T07:40:28;2.50;99.90
48007;DHT22;33771;48.180;11.400;2022-12-05T07:42:53;2.60;99.90
48007;DHT22;33771;48.180;11.400;2022-12-05T07:45:20;2.60;99.90
48007;DHT22;33771;48.180;11.400;2022-12-05T07:47:46;2.60;99.90
48007;DHT22;33771;48.180;11.400;2022-12-05T07:50:12;2.60;99.90
48007;DHT22;33771;48.180;11.400;2022-12-05T07:52:38;2.60;99.90
48007;DHT22;33771;48.180;11.400;2022-12-05T07:55:04;2.60;99.90
48007;DHT22;33771;48.180;11.400;2022-12-05T07:57:30;2.60;99.90
48007;DHT22;33771;48.180;11.400;2022-12-05T07:59:56;2.70;99.90
48007;DHT22;33771;48.180;11.400;2022-12-05T08:02:21;2.70;99.90
48007;DHT22;33771;48.180;11.400;2022-12-05T08:04:47;2.70;99.90
48007;DHT22;33771;48.180;11.400;2022-12-05T08:07:12;2.70;99.90
48007;DHT22;33771;48.180;11.400;2022-12-05T08:09:38;2.70;99.90
48007;DHT22;33771;48.180;11.400;2022-12-05T08:12:04;2.80;99.90
48007;DHT22;33771;48.180;11.400;2022-12-05T08:14:29;2.80;99.90
48007;DHT22;33771;48.180;11.400;2022-12-05T08:16:55;2.80;99.90
48007;DHT22;33771;48.180;11.400;2022-12-05T08:19:21;2.80;99.90
48007;DHT22;33771;48.180;11.400;2022-12-05T08:21:46;2.80;99.90
48007;DHT22;33771;48.180;11.400;2022-12-05T08:24:12;2.90;99.90
48007;DHT22;33771;48.180;11.400;2022-12-05T08:26:38;2.90;99.90
48007;DHT22;33771;48.180;11.400;2022-12-05T08:29:13;2.90;99.90
48007;DHT22;33771;48.180;11.400;2022-12-05T08:31:45;3.00;99.90
48007;DHT22;33771;48.180;11.400;2022-12-05T08:34:14;3.10;99.90
48007;DHT22;33771;48.180;11.400;2022-12-05T08:36:40;3.10;99.90
48007;DHT22;33771;48.180;11.400;2022-12-05T08:39:07;3.20;99.90
48007;DHT22;33771;48.180;11.400;2022-12-05T08:41:36;3.30;99.90
48007;DHT22;33771;48.180;11.400;2022-12-05T08:44:03;3.30;99.90
48007;DHT22;33771;48.180;11.400;2022-12-05T08:46:35;3.40;99.90
48007;DHT22;33771;48.180;11.400;2022-12-05T08:49:02;3.40;99.90
48007;DHT22;33771;48.180;11.400;2022-12-05T08:51:28;3.50;99.90
48007;DHT22;33771;48.180;11.400;2022-12-05T08:53:53;3.50;99.90
48007;DHT22;33771;48.180;11.400;2022-12-05T08:56:20;3.60;99.90
48007;DHT22;33771;48.180;11.400;2022-12-05T08:58:46;3.50;99.90
48007;DHT22;33771;48.180;11.400;2022-12-05T09:01:17;3.60;99.90
48007;DHT22;33771;48.180;11.400;2022-12-05T09:03:43;3.60;99.90
48007;DHT22;33771;48.180;11.400;2022-12-05T09:06:10;3.60;99.90
48007;DHT22;33771;48.180;11.400;2022-12-05T09:08:37;3.70;99.90
48007;DHT22;33771;48.180;11.400;2022-12-05T09:11:07;3.70;99.90
48007;DHT22;33771;48.180;11.400;2022-12-05T09:13:33;3.70;99.90
48007;DHT22;33771;48.180;11.400;2022-12-05T09:16:04;3.80;99.90
48007;DHT22;33771;48.180;11.400;2022-12-05T09:18:30;3.80;99.90
48007;DHT22;33771;48.180;11.400;2022-12-05T09:20:56;3.80;99.90
48007;DHT22;33771;48.180;11.400;2022-12-05T09:23:21;3.80;99.90
48007;DHT22;33771;48.180;11.400;2022-12-05T09:25:53;3.80;99.90
48007;DHT22;33771;48.180;11.400;2022-12-05T09:28:22;3.80;99.90
48007;DHT22;33771;48.180;11.400;2022-12-05T09:30:55;3.80;99.90
48007;DHT22;33771;48.180;11.400;2022-12-05T09:33:21;3.80;99.90
48007;DHT22;33771;48.180;11.400;2022-12-05T09:35:47;3.80;99.90
48007;DHT22;33771;48.180;11.400;2022-12-05T09:38:12;3.70;99.90
48007;DHT22;33771;48.180;11.400;2022-12-05T09:40:41;3.70;99.90
48007;DHT22;33771;48.180;11.400;2022-12-05T09:43:19;3.70;99.90
48007;DHT22;33771;48.180;11.400;2022-12-05T09:46:33;3.70;99.90
48007;DHT22;33771;48.180;11.400;2022-12-05T09:48:50;3.70;99.90
48007;DHT22;33771;48.180;11.400;2022-12-05T09:51:16;3.70;99.90
48007;DHT22;33771;48.180;11.400;2022-12-05T09:53:43;3.70;99.90
48007;DHT22;33771;48.180;11.400;2022-12-05T09:56:14;3.70;99.90
48007;DHT22;33771;48.180;11.400;2022-12-05T09:58:51;3.80;99.90
48007;DHT22;33771;48.180;11.400;2022-12-05T10:01:32;3.80;99.90
48007;DHT22;33771;48.180;11.400;2022-12-05T10:04:25;3.80;99.90
48007;DHT22;33771;48.180;11.400;2022-12-05T10:12:41;3.80;99.90
48007;DHT22;33771;48.180;11.400;2022-12-05T10:17:51;3.80;99.90
48007;DHT22;33771;48.180;11.400;2022-12-05T10:20:24;3.80;99.90
48007;DHT22;33771;48.180;11.400;2022-12-05T10:22:57;3.90;99.90
48007;DHT22;33771;48.180;11.400;2022-12-05T10:25:26;3.90;99.90
48007;DHT22;33771;48.180;11.400;2022-12-05T10:27:57;3.90;99.90
48007;DHT22;33771;48.180;11.400;2022-12-05T10:30:27;4.00;99.90
48007;DHT22;33771;48.180;11.400;2022-12-05T10:33:02;4.00;99.90
48007;DHT22;33771;48.180;11.400;2022-12-05T10:35:36;4.00;99.90
48007;DHT22;33771;48.180;11.400;2022-12-05T10:38:10;4.10;99.90
48007;DHT22;33771;48.180;11.400;2022-12-05T10:40:39;4.10;99.90
48007;DHT22;33771;48.180;11.400;2022-12-05T10:43:06;4.10;99.90
48007;DHT22;33771;48.180;11.400;2022-12-05T10:45:38;4.10;99.90
48007;DHT22;33771;48.180;11.400;2022-12-05T10:48:13;4.10;99.90
48007;DHT22;33771;48.180;11.400;2022-12-05T10:50:41;4.20;99.90
48007;DHT22;33771;48.180;11.400;2022-12-05T10:53:14;4.20;99.90
48007;DHT22;33771;48.180;11.400;2022-12-05T10:55:43;4.30;99.90
48007;DHT22;33771;48.180;11.400;2022-12-05T11:00:37;4.30;99.90
48007;DHT22;33771;48.180;11.400;2022-12-05T11:05:53;4.40;99.90
48007;DHT22;33771;48.180;11.400;2022-12-05T11:08:29;4.50;99.90
48007;DHT22;33771;48.180;11.400;2022-12-05T11:11:25;4.60;99.90
48007;DHT22;33771;48.180;11.400;2022-12-05T11:16:38;4.60;99.90
48007;DHT22;33771;48.180;11.400;2022-12-05T11:21:49;4.80;99.90
48007;DHT22;33771;48.180;11.400;2022-12-05T11:24:29;4.80;99.90
48007;DHT22;33771;48.180;11.400;2022-12-05T11:26:57;4.80;99.90
48007;DHT22;33771;48.180;11.400;2022-12-05T11:29:37;4.80;99.90
48007;DHT22;33771;48.180;11.400;2022-12-05T11:32:05;4.80;99.90
48007;DHT22;33771;48.180;11.400;2022-12-05T11:37:32;4.80;99.90
48007;DHT22;33771;48.180;11.400;2022-12-05T11:40:01;4.80;99.90
48007;DHT22;33771;48.180;11.400;2022-12-05T11:48:19;4.90;99.90
48007;DHT22;33771;48.180;11.400;2022-12-05T11:56:37;4.90;99.90
48007;DHT22;33771;48.180;11.400;2022-12-05T12:09:53;4.70;99.90
48007;DHT22;33771;48.180;11.400;2022-12-05T12:18:00;4.60;99.90
48007;DHT22;33771;48.180;11.400;2022-12-05T12:20:41;4.60;99.90
48007;DHT22;33771;48.180;11.400;2022-12-05T12:31:19;4.70;99.90
48007;DHT22;33771;48.180;11.400;2022-12-05T12:47:00;4.60;99.90
48007;DHT22;33771;48.180;11.400;2022-12-05T12:52:08;4.70;99.90
48007;DHT22;33771;48.180;11.400;2022-12-05T12:54:48;4.70;99.90
48007;DHT22;33771;48.180;11.400;2022-12-05T13:02:51;4.70;99.90
48007;DHT22;33771;48.180;11.400;2022-12-05T13:05:51;4.80;99.90
48007;DHT22;33771;48.180;11.400;2022-12-05T13:08:25;4.80;99.90
48007;DHT22;33771;48.180;11.400;2022-12-05T13:10:53;4.80;99.90
48007;DHT22;33771;48.180;11.400;2022-12-05T13:13:27;4.80;99.90
48007;DHT22;33771;48.180;11.400;2022-12-05T13:16:01;4.80;99.90
48007;DHT22;33771;48.180;11.400;2022-12-05T13:18:27;4.80;99.90
48007;DHT22;33771;48.180;11.400;2022-12-05T13:20:55;4.80;99.90
48007;DHT22;33771;48.180;11.400;2022-12-05T13:23:27;4.70;99.90
48007;DHT22;33771;48.180;11.400;2022-12-05T13:25:55;4.70;99.90
48007;DHT22;33771;48.180;11.400;2022-12-05T13:31:07;4.60;99.90
48007;DHT22;33771;48.180;11.400;2022-12-05T13:33:35;4.60;99.90
48007;DHT22;33771;48.180;11.400;2022-12-05T13:36:18;4.50;99.90
48007;DHT22;33771;48.180;11.400;2022-12-05T13:39:04;4.50;99.90
48007;DHT22;33771;48.180;11.400;2022-12-05T13:41:54;4.50;99.90
48007;DHT22;33771;48.180;11.400;2022-12-05T13:44:43;4.50;99.90
48007;DHT22;33771;48.180;11.400;2022-12-05T13:50:32;4.40;99.90
48007;DHT22;33771;48.180;11.400;2022-12-05T13:53:03;4.40;99.90
48007;DHT22;33771;48.180;11.400;2022-12-05T13:55:38;4.40;99.90
48007;DHT22;33771;48.180;11.400;2022-12-05T14:00:45;4.30;99.90
48007;DHT22;33771;48.180;11.400;2022-12-05T14:06:00;4.30;99.90
48007;DHT22;33771;48.180;11.400;2022-12-05T14:22:13;4.20;99.90
48007;DHT22;33771;48.180;11.400;2022-12-05T14:27:22;4.10;99.90
48007;DHT22;33771;48.180;11.400;2022-12-05T14:30:04;4.10;99.90
48007;DHT22;33771;48.180;11.400;2022-12-05T14:32:33;4.10;99.90
48007;DHT22;33771;48.180;11.400;2022-12-05T14:37:35;4.10;99.90
48007;DHT22;33771;48.180;11.400;2022-12-05T14:40:03;4.10;99.90
48007;DHT22;33771;48.180;11.400;2022-12-05T14:42:43;4.10;99.90
48007;DHT22;33771;48.180;11.400;2022-12-05T14:45:40;4.00;99.90
48007;DHT22;33771;48.180;11.400;2022-12-05T14:50:49;4.00;99.90
48007;DHT22;33771;48.180;11.400;2022-12-05T15:06:51;3.90;99.90
48007;DHT22;33771;48.180;11.400;2022-12-05T15:09:39;3.80;99.90
48007;DHT22;33771;48.180;11.400;2022-12-05T15:12:15;3.80;99.90
48007;DHT22;33771;48.180;11.400;2022-12-05T15:15:05;3.80;99.90
48007;DHT22;33771;48.180;11.400;2022-12-05T15:17:57;3.80;99.90
48007;DHT22;33771;48.180;11.400;2022-12-05T15:20:36;3.80;99.90
48007;DHT22;33771;48.180;11.400;2022-12-05T15:23:43;3.70;99.90
48007;DHT22;33771;48.180;11.400;2022-12-05T15:29:11;3.70;99.90
48007;DHT22;33771;48.180;11.400;2022-12-05T15:31:58;3.70;99.90
48007;DHT22;33771;48.180;11.400;2022-12-05T15:34:28;3.70;99.90
48007;DHT22;33771;48.180;11.400;2022-12-05T15:37:05;3.70;99.90
48007;DHT22;33771;48.180;11.400;2022-12-05T15:39:50;3.60;99.90
48007;DHT22;33771;48.180;11.400;2022-12-05T15:42:31;3.60;99.90
48007;DHT22;33771;48.180;11.400;2022-12-05T15:47:38;3.60;99.90
48007;DHT22;33771;48.180;11.400;2022-12-05T15:50:05;3.60;99.90
48007;DHT22;33771;48.180;11.400;2022-12-05T15:52:41;3.60;99.90
48007;DHT22;33771;48.180;11.400;2022-12-05T15:55:14;3.60;99.90
48007;DHT22;33771;48.180;11.400;2022-12-05T15:58:00;3.60;99.90
48007;DHT22;33771;48.180;11.400;2022-12-05T16:00:29;3.60;99.90
48007;DHT22;33771;48.180;11.400;2022-12-05T16:03:06;3.60;99.90
48007;DHT22;33771;48.180;11.400;2022-12-05T16:05:39;3.50;99.90
48007;DHT22;33771;48.180;11.400;2022-12-05T16:08:06;3.50;99.90
48007;DHT22;33771;48.180;11.400;2022-12-05T16:10:33;3.60;99.90
48007;DHT22;33771;48.180;11.400;2022-12-05T16:13:22;3.60;99.90
48007;DHT22;33771;48.180;11.400;2022-12-05T16:15:51;3.50;99.90
48007;DHT22;33771;48.180;11.400;2022-12-05T16:18:27;3.50;99.90
48007;DHT22;33771;48.180;11.400;2022-12-05T16:20:54;3.50;99.90
48007;DHT22;33771;48.180;11.400;2022-12-05T16:25:51;3.50;99.90
48007;DHT22;33771;48.180;11.400;2022-12-05T16:28:18;3.50;99.90
48007;DHT22;33771;48.180;11.400;2022-12-05T16:30:56;3.50;99.90
48007;DHT22;33771;48.180;11.400;2022-12-05T16:33:22;3.50;99.90
48007;DHT22;33771;48.180;11.400;2022-12-05T16:35:48;3.50;99.90
48007;DHT22;33771;48.180;11.400;2022-12-05T16:38:20;3.50;99.90
48007;DHT22;33771;48.180;11.400;2022-12-05T16:40:52;3.50;99.90
48007;DHT22;33771;48.180;11.400;2022-12-05T16:43:24;3.50;99.90
48007;DHT22;33771;48.180;11.400;2022-12-05T16:45:52;3.50;99.90
48007;DHT22;33771;48.180;11.400;2022-12-05T16:48:31;3.50;99.90
48007;DHT22;33771;48.180;11.400;2022-12-05T16:53:39;3.50;99.90
48007;DHT22;33771;48.180;11.400;2022-12-05T16:56:06;3.50;99.90
48007;DHT22;33771;48.180;11.400;2022-12-05T16:58:36;3.50;99.90
48007;DHT22;33771;48.180;11.400;2022-12-05T17:01:04;3.40;99.90
48007;DHT22;33771;48.180;11.400;2022-12-05T17:03:31;3.40;99.90
48007;DHT22;33771;48.180;11.400;2022-12-05T17:05:57;3.40;99.90
48007;DHT22;33771;48.180;11.400;2022-12-05T17:08:24;3.40;99.90
48007;DHT22;33771;48.180;11.400;2022-12-05T17:10:50;3.40;99.90
48007;DHT22;33771;48.180;11.400;2022-12-05T17:13:17;3.40;99.90
48007;DHT22;33771;48.180;11.400;2022-12-05T17:15:43;3.40;99.90
48007;DHT22;33771;48.180;11.400;2022-12-05T17:18:18;3.40;99.90
48007;DHT22;33771;48.180;11.400;2022-12-05T17:20:54;3.40;99.90
48007;DHT22;33771;48.180;11.400;2022-12-05T17:23:20;3.50;99.90
48007;DHT22;33771;48.180;11.400;2022-12-05T17:25:51;3.50;99.90
48007;DHT22;33771;48.180;11.400;2022-12-05T17:28:17;3.50;99.90
48007;DHT22;33771;48.180;11.400;2022-12-05T17:30:42;3.50;99.90
48007;DHT22;33771;48.180;11.400;2022-12-05T17:33:13;3.40;99.90
48007;DHT22;33771;48.180;11.400;2022-12-05T17:35:39;3.40;99.90
48007;DHT22;33771;48.180;11.400;2022-12-05T17:38:05;3.40;99.90
48007;DHT22;33771;48.180;11.400;2022-12-05T17:40:32;3.50;99.90
48007;DHT22;33771;48.180;11.400;2022-12-05T17:42:58;3.50;99.90
48007;DHT22;33771;48.180;11.400;2022-12-05T17:45:24;3.50;99.90
48007;DHT22;33771;48.180;11.400;2022-12-05T17:47:50;3.40;99.90
48007;DHT22;33771;48.180;11.400;2022-12-05T17:50:17;3.40;99.90
48007;DHT22;33771;48.180;11.400;2022-12-05T17:52:44;3.40;99.90
48007;DHT22;33771;48.180;11.400;2022-12-05T17:55:18;3.40;99.90
48007;DHT22;33771;48.180;11.400;2022-12-05T17:57:44;3.40;99.90
48007;DHT22;33771;48.180;11.400;2022-12-05T18:00:11;3.40;99.90
48007;DHT22;33771;48.180;11.400;2022-12-05T18:02:37;3.40;99.90
48007;DHT22;33771;48.180;11.400;2022-12-05T18:05:03;3.40;99.90
48007;DHT22;33771;48.180;11.400;2022-12-05T18:07:29;3.40;99.90
48007;DHT22;33771;48.180;11.400;2022-12-05T18:09:55;3.40;99.90
48007;DHT22;33771;48.180;11.400;2022-12-05T18:12:20;3.40;99.90
48007;DHT22;33771;48.180;11.400;2022-12-05T18:14:46;3.40;99.90
48007;DHT22;33771;48.180;11.400;2022-12-05T18:17:11;3.40;99.90
48007;DHT22;33771;48.180;11.400;2022-12-05T18:19:37;3.40;99.90
48007;DHT22;33771;48.180;11.400;2022-12-05T18:22:03;3.40;99.90
48007;DHT22;33771;48.180;11.400;2022-12-05T18:24:28;3.30;99.90
48007;DHT22;33771;48.180;11.400;2022-12-05T18:26:54;3.30;99.90
48007;DHT22;33771;48.180;11.400;2022-12-05T18:29:23;3.30;99.90
48007;DHT22;33771;48.180;11.400;2022-12-05T18:31:48;3.30;99.90
48007;DHT22;33771;48.180;11.400;2022-12-05T18:34:14;3.30;99.90
48007;DHT22;33771;48.180;11.400;2022-12-05T18:36:40;3.30;99.90